Terminal Aerodrome Forecast
Issued by NWS

Home | Current Version | Previous Version | Text Only | Print | Product List | Glossary On
Versions: 1 2 3 4 5 6 7 8 9 10 11 12 13 14 15 16 17 18 19 20 21 22 23 24 25 26 27 28 29
000
FTUS46 KLOX 060212 AAA
TAFSBA
TAF AMD
KSBA 060212Z 0602/0624 28007KT P6SM VCSH SCT020 BKN050
     FM060400 VRB03KT P6SM -SHRA VCTS SCT025 OVC040CB
     FM060900 VRB03KT P6SM VCSH SCT015 OVC025
     FM061800 22005KT P6SM SCT020 OVC030
     FM062100 24007KT P6SM SCT025 OVC050=

USA.gov is the U.S. government's official web portal to all federal, state and local government web resources and services.